createdAt,value
2022-12-13T00:01:16.509Z,-0.89
2022-12-13T00:03:21.740Z,-0.91
2022-12-13T00:05:26.813Z,-0.92
2022-12-13T00:07:31.170Z,-0.96
2022-12-13T00:09:35.486Z,-0.97
2022-12-13T00:11:39.699Z,-1.02
2022-12-13T00:13:46.824Z,-1.06
2022-12-13T00:15:57.745Z,-1.09
2022-12-13T00:18:01.473Z,-1.08
2022-12-13T00:20:06.024Z,-1.08
2022-12-13T00:22:09.874Z,-1.09
2022-12-13T00:24:14.804Z,-1.07
2022-12-13T00:26:21.159Z,-1.05
2022-12-13T00:28:25.475Z,-1.07
2022-12-13T00:30:32.715Z,-1.07
2022-12-13T00:32:37.238Z,-1.06
2022-12-13T00:34:40.919Z,-1.05
2022-12-13T00:36:44.738Z,-1.03
2022-12-13T00:39:00.491Z,-1.03
2022-12-13T00:41:13.099Z,-1.02
2022-12-13T00:43:18.501Z,-1.02
2022-12-13T00:45:22.223Z,-1.00
2022-12-13T00:47:28.545Z,-1.01
2022-12-13T00:49:32.143Z,-1.02
2022-12-13T00:51:37.108Z,-0.99
2022-12-13T00:53:41.327Z,-1.01
2022-12-13T00:55:45.273Z,-0.99
2022-12-13T00:57:49.009Z,-1.00
2022-12-13T00:59:52.836Z,-1.00
2022-12-13T01:01:56.650Z,-1.01
2022-12-13T01:04:03.165Z,-0.99
2022-12-13T01:06:15.950Z,-1.02
2022-12-13T01:08:20.401Z,-0.99
2022-12-13T01:10:25.099Z,-0.97
2022-12-13T01:12:28.890Z,-0.94
2022-12-13T01:14:35.663Z,-0.94
2022-12-13T01:16:39.796Z,-0.92
2022-12-13T01:18:44.121Z,-0.92
2022-12-13T01:21:00.983Z,-0.93
2022-12-13T01:23:05.059Z,-0.96
2022-12-13T01:25:10.203Z,-0.98
2022-12-13T01:27:14.029Z,-1.00
2022-12-13T01:29:17.851Z,-1.00
2022-12-13T01:31:22.616Z,-0.99
2022-12-13T01:33:27.651Z,-1.02
2022-12-13T01:35:31.462Z,-1.03
2022-12-13T01:37:37.553Z,-1.03
2022-12-13T01:39:41.280Z,-1.03
2022-12-13T01:41:46.134Z,-1.05
2022-12-13T01:43:56.434Z,-1.07
2022-12-13T01:46:00.157Z,-1.09
2022-12-13T01:48:07.772Z,-1.07
2022-12-13T01:50:16.186Z,-1.08
2022-12-13T01:52:20.063Z,-1.08
2022-12-13T01:54:33.834Z,-1.05
2022-12-13T01:56:42.114Z,-1.04
2022-12-13T01:58:46.833Z,-1.02
2022-12-13T02:00:51.653Z,-1.00
2022-12-13T02:02:58.840Z,-0.98
2022-12-13T02:05:08.110Z,-0.97
2022-12-13T02:07:13.135Z,-0.94
2022-12-13T02:09:18.014Z,-0.93
2022-12-13T02:11:23.959Z,-0.90
2022-12-13T02:13:27.821Z,-0.84
2022-12-13T02:15:39.399Z,-0.81
2022-12-13T02:18:02.036Z,-0.79
2022-12-13T02:20:38.798Z,-0.78
2022-12-13T02:22:57.319Z,-0.76
2022-12-13T02:25:17.450Z,-0.76
2022-12-13T02:27:44.768Z,-0.74
2022-12-13T02:30:24.616Z,-0.74
2022-12-13T02:32:34.682Z,-0.74
2022-12-13T02:34:41.177Z,-0.72
2022-12-13T02:36:57.568Z,-0.70
2022-12-13T02:39:10.843Z,-0.69
2022-12-13T02:41:18.721Z,-0.68
2022-12-13T02:43:25.551Z,-0.68
2022-12-13T02:45:42.793Z,-0.64
2022-12-13T02:47:49.363Z,-0.61
2022-12-13T02:49:56.713Z,-0.59
2022-12-13T02:52:01.806Z,-0.61
2022-12-13T02:54:05.633Z,-0.59
2022-12-13T02:56:09.377Z,-0.56
2022-12-13T02:58:15.311Z,-0.55
2022-12-13T03:00:21.484Z,-0.53
2022-12-13T03:02:33.436Z,-0.53
2022-12-13T03:05:07.999Z,-0.56
2022-12-13T03:07:24.477Z,-0.57
2022-12-13T03:09:45.515Z,-0.59
2022-12-13T03:12:24.262Z,-0.60
2022-12-13T03:14:31.560Z,-0.64
2022-12-13T03:16:39.613Z,-0.68
2022-12-13T03:18:47.461Z,-0.69
2022-12-13T03:20:59.235Z,-0.69
2022-12-13T03:23:02.957Z,-0.70
2022-12-13T03:25:07.169Z,-0.66
2022-12-13T03:27:11.267Z,-0.66
2022-12-13T03:29:23.847Z,-0.67
2022-12-13T03:31:28.605Z,-0.67
2022-12-13T03:33:32.187Z,-0.68
2022-12-13T03:35:44.317Z,-0.69
2022-12-13T03:37:50.247Z,-0.69
2022-12-13T03:39:53.758Z,-0.71
2022-12-13T03:41:57.476Z,-0.71
2022-12-13T03:44:01.575Z,-0.73
2022-12-13T03:46:05.148Z,-0.75
2022-12-13T03:48:08.729Z,-0.77
2022-12-13T03:50:26.708Z,-0.77
2022-12-13T03:52:31.204Z,-0.76
2022-12-13T03:54:36.316Z,-0.76
2022-12-13T03:56:39.968Z,-0.76
2022-12-13T03:58:43.689Z,-0.78
2022-12-13T04:00:47.460Z,-0.79
2022-12-13T04:02:51.136Z,-0.79
2022-12-13T04:04:54.910Z,-0.80
2022-12-13T04:07:04.546Z,-0.81
2022-12-13T04:09:25.970Z,-0.82
2022-12-13T04:11:53.288Z,-0.83
2022-12-13T04:13:58.750Z,-0.84
2022-12-13T04:16:03.513Z,-0.85
2022-12-13T04:18:07.445Z,-0.86
2022-12-13T04:20:12.021Z,-0.86
2022-12-13T04:22:19.054Z,-0.87
2022-12-13T04:24:31.818Z,-0.87
2022-12-13T04:26:37.192Z,-0.90
2022-12-13T04:28:40.693Z,-0.88
2022-12-13T04:30:44.284Z,-0.87
2022-12-13T04:32:47.841Z,-0.87
2022-12-13T04:34:51.498Z,-0.88
2022-12-13T04:36:55.060Z,-0.88
2022-12-13T04:38:58.594Z,-0.88
2022-12-13T04:41:09.030Z,-0.88
2022-12-13T04:43:14.090Z,-0.87
2022-12-13T04:45:19.480Z,-0.84
2022-12-13T04:47:23.128Z,-0.82
2022-12-13T04:49:27.033Z,-0.82
2022-12-13T04:51:31.385Z,-0.81
2022-12-13T04:53:35.054Z,-0.80
2022-12-13T04:55:38.877Z,-0.79
2022-12-13T04:57:42.310Z,-0.80
2022-12-13T04:59:47.314Z,-0.80
2022-12-13T05:01:51.072Z,-0.77
2022-12-13T05:03:54.717Z,-0.75
2022-12-13T05:05:58.225Z,-0.72
2022-12-13T05:08:01.777Z,-0.70
2022-12-13T05:10:06.500Z,-0.69
2022-12-13T05:12:13.027Z,-0.66
2022-12-13T05:14:27.959Z,-0.65
2022-12-13T05:16:34.938Z,-0.62
2022-12-13T05:18:39.493Z,-0.63
2022-12-13T05:20:44.322Z,-0.62
2022-12-13T05:22:48.011Z,-0.62
2022-12-13T05:24:52.933Z,-0.62
2022-12-13T05:26:56.484Z,-0.62
2022-12-13T05:29:00.557Z,-0.63
2022-12-13T05:31:22.704Z,-0.66
2022-12-13T05:33:28.737Z,-0.66
2022-12-13T05:35:32.231Z,-0.64
2022-12-13T05:37:35.830Z,-0.63
2022-12-13T05:39:39.363Z,-0.60
2022-12-13T05:41:44.340Z,-0.55
2022-12-13T05:43:48.725Z,-0.54
2022-12-13T05:45:52.295Z,-0.52
2022-12-13T05:47:55.927Z,-0.50
2022-12-13T05:50:01.213Z,-0.49
2022-12-13T05:52:04.854Z,-0.52
2022-12-13T05:54:08.865Z,-0.51
2022-12-13T05:56:13.463Z,-0.52
2022-12-13T05:58:26.198Z,-0.50
2022-12-13T06:00:39.045Z,-0.48
2022-12-13T06:02:43.682Z,-0.46
2022-12-13T06:04:47.337Z,-0.46
2022-12-13T06:06:52.649Z,-0.46
2022-12-13T06:08:56.356Z,-0.46
2022-12-13T06:11:11.759Z,-0.43
2022-12-13T06:13:21.507Z,-0.44
2022-12-13T06:15:26.550Z,-0.42
2022-12-13T06:17:38.872Z,-0.41
2022-12-13T06:19:42.433Z,-0.40
2022-12-13T06:21:46.746Z,-0.41
2022-12-13T06:23:51.993Z,-0.40
2022-12-13T06:25:55.807Z,-0.39
2022-12-13T06:28:00.886Z,-0.40
2022-12-13T06:30:05.754Z,-0.39
2022-12-13T06:32:09.422Z,-0.39
2022-12-13T06:34:14.836Z,-0.37
2022-12-13T06:36:19.073Z,-0.36
2022-12-13T06:38:31.323Z,-0.34
2022-12-13T06:40:37.208Z,-0.35
2022-12-13T06:42:41.581Z,-0.33
2022-12-13T06:44:45.127Z,-0.34
2022-12-13T06:46:49.250Z,-0.33
2022-12-13T06:48:55.882Z,-0.32
2022-12-13T06:51:02.868Z,-0.31
2022-12-13T06:53:07.024Z,-0.30
2022-12-13T06:55:11.489Z,-0.28
2022-12-13T06:57:17.431Z,-0.28
2022-12-13T06:59:21.269Z,-0.27
2022-12-13T07:01:25.299Z,-0.26
2022-12-13T07:03:29.550Z,-0.23
2022-12-13T07:05:33.613Z,-0.24
2022-12-13T07:07:37.500Z,-0.23
2022-12-13T07:09:41.513Z,-0.23
2022-12-13T07:11:51.441Z,-0.22
2022-12-13T07:13:58.631Z,-0.22
2022-12-13T07:16:02.528Z,-0.22
2022-12-13T07:18:06.200Z,-0.19
2022-12-13T07:20:11.434Z,-0.17
2022-12-13T07:22:15.435Z,-0.14
2022-12-13T07:24:18.966Z,-0.13
2022-12-13T07:26:22.714Z,-0.14
2022-12-13T07:28:26.639Z,-0.15
2022-12-13T07:30:33.003Z,-0.14
2022-12-13T07:32:36.627Z,-0.14
2022-12-13T07:34:40.328Z,-0.13
2022-12-13T07:36:43.818Z,-0.12
2022-12-13T07:38:53.269Z,-0.13
2022-12-13T07:40:58.893Z,-0.11
2022-12-13T07:43:02.656Z,-0.11
2022-12-13T07:45:06.932Z,-0.12
2022-12-13T07:47:15.806Z,-0.13
2022-12-13T07:49:19.607Z,-0.13
2022-12-13T07:51:24.625Z,-0.14
2022-12-13T07:53:28.752Z,-0.14
2022-12-13T07:55:38.579Z,-0.17
2022-12-13T07:57:42.636Z,-0.20
2022-12-13T07:59:46.626Z,-0.22
2022-12-13T08:01:50.543Z,-0.23
2022-12-13T08:03:56.486Z,-0.27
2022-12-13T08:06:01.876Z,-0.30
2022-12-13T08:08:07.520Z,-0.30
2022-12-13T08:10:11.808Z,-0.30
2022-12-13T08:12:15.826Z,-0.27
2022-12-13T08:14:26.597Z,-0.24
2022-12-13T08:16:30.671Z,-0.22
2022-12-13T08:18:34.546Z,-0.21
2022-12-13T08:20:40.227Z,-0.19
2022-12-13T08:22:43.919Z,-0.16
2022-12-13T08:24:53.445Z,-0.13
2022-12-13T08:27:01.253Z,-0.11
2022-12-13T08:29:05.644Z,-0.09
2022-12-13T08:31:11.723Z,-0.06
2022-12-13T08:33:15.449Z,0.02
2022-12-13T08:35:19.202Z,0.12
2022-12-13T08:37:25.028Z,0.20
2022-12-13T08:39:29.134Z,0.32
2022-12-13T08:41:38.932Z,0.41
2022-12-13T08:43:43.833Z,0.48
2022-12-13T08:45:48.334Z,0.59
2022-12-13T08:47:53.014Z,0.72
2022-12-13T08:50:02.595Z,0.80
2022-12-13T08:52:07.984Z,0.86
2022-12-13T08:54:13.168Z,0.89
2022-12-13T08:56:36.413Z,0.95
2022-12-13T08:58:41.913Z,0.97
2022-12-13T09:00:46.789Z,0.99
2022-12-13T09:02:51.263Z,1.03
2022-12-13T09:04:55.645Z,1.06
2022-12-13T09:07:01.573Z,1.09
2022-12-13T09:09:06.501Z,1.11
2022-12-13T09:11:24.005Z,1.13
2022-12-13T09:13:43.327Z,1.14
2022-12-13T09:15:47.827Z,1.16
2022-12-13T09:17:54.487Z,1.21
2022-12-13T09:19:59.519Z,1.24
2022-12-13T09:22:04.002Z,1.26
2022-12-13T09:24:23.611Z,1.29
2022-12-13T09:26:37.642Z,1.32
2022-12-13T09:28:44.211Z,1.32
2022-12-13T09:30:48.531Z,1.35
2022-12-13T09:32:52.702Z,1.39
2022-12-13T09:34:56.990Z,1.41
2022-12-13T09:37:02.017Z,1.41
2022-12-13T09:39:06.283Z,1.45
2022-12-13T09:41:19.629Z,1.48
2022-12-13T09:43:31.770Z,1.55
2022-12-13T09:45:42.866Z,1.60
2022-12-13T09:47:49.117Z,1.63
2022-12-13T09:49:53.994Z,1.63
2022-12-13T09:52:11.197Z,1.64
2022-12-13T09:54:20.958Z,1.64
2022-12-13T09:56:25.585Z,1.64
2022-12-13T09:58:33.431Z,1.67
2022-12-13T10:00:38.388Z,1.66
2022-12-13T10:02:46.650Z,1.72
2022-12-13T10:04:50.731Z,1.73
2022-12-13T10:06:56.603Z,1.73
2022-12-13T10:09:02.077Z,1.73
2022-12-13T10:11:06.747Z,1.72
2022-12-13T10:13:19.603Z,1.72
2022-12-13T10:15:26.451Z,1.70
2022-12-13T10:17:38.052Z,1.72
2022-12-13T10:19:44.839Z,1.69
2022-12-13T10:21:49.828Z,1.70
2022-12-13T10:24:23.112Z,1.73
2022-12-13T10:26:24.227Z,1.74
2022-12-13T10:28:31.380Z,1.77
2022-12-13T10:30:46.560Z,1.81
2022-12-13T10:32:55.266Z,1.85
2022-12-13T10:34:59.087Z,1.86
2022-12-13T10:37:28.368Z,1.88
2022-12-13T10:39:41.239Z,1.94
2022-12-13T10:41:46.745Z,1.95
2022-12-13T10:44:18.028Z,1.99
2022-12-13T10:46:25.068Z,1.99
2022-12-13T10:48:38.972Z,2.01
2022-12-13T10:50:43.870Z,2.02
2022-12-13T10:52:49.467Z,2.05
2022-12-13T10:54:54.044Z,2.10
2022-12-13T10:57:06.561Z,2.17
2022-12-13T10:59:17.222Z,2.22
2022-12-13T11:01:25.461Z,2.23
2022-12-13T11:03:33.816Z,2.24
2022-12-13T11:05:40.846Z,2.26
2022-12-13T11:07:45.079Z,2.31
2022-12-13T11:09:52.443Z,2.39
2022-12-13T11:11:59.621Z,2.46
2022-12-13T11:14:03.950Z,2.49
2022-12-13T11:16:23.572Z,2.50
2022-12-13T11:18:37.726Z,2.49
2022-12-13T11:20:56.478Z,2.53
2022-12-13T11:23:08.206Z,2.50
2022-12-13T11:25:23.466Z,2.45
2022-12-13T11:27:47.349Z,2.45
2022-12-13T11:29:58.804Z,2.47
2022-12-13T11:32:11.413Z,2.50
2022-12-13T11:34:24.734Z,2.52
2022-12-13T11:36:33.561Z,2.51
2022-12-13T11:38:58.962Z,2.46
2022-12-13T11:41:11.399Z,2.46
2022-12-13T11:43:23.369Z,2.45
2022-12-13T11:45:32.963Z,2.41
2022-12-13T11:47:41.514Z,2.43
2022-12-13T11:49:51.103Z,2.45
2022-12-13T11:52:00.243Z,2.44
2022-12-13T11:54:12.752Z,2.41
2022-12-13T11:56:26.360Z,2.41
2022-12-13T11:59:01.914Z,2.41
2022-12-13T12:01:06.191Z,2.42
2022-12-13T12:03:20.017Z,2.41
2022-12-13T12:05:35.547Z,2.37
2022-12-13T12:08:12.685Z,2.35
2022-12-13T12:10:24.360Z,2.33
2022-12-13T12:12:33.711Z,2.30
2022-12-13T12:14:44.091Z,2.28
2022-12-13T12:16:53.297Z,2.29
2022-12-13T12:19:01.565Z,2.29
2022-12-13T12:21:19.268Z,2.31
2022-12-13T12:23:36.325Z,2.32
2022-12-13T12:25:49.621Z,2.29
2022-12-13T12:28:04.154Z,2.33
2022-12-13T12:30:23.858Z,2.41
2022-12-13T12:32:36.750Z,2.42
2022-12-13T12:34:52.309Z,2.44
2022-12-13T12:37:11.805Z,2.43
2022-12-13T12:39:35.638Z,2.42
2022-12-13T12:42:03.388Z,2.44
2022-12-13T12:44:18.996Z,2.45
2022-12-13T12:47:08.725Z,2.46
2022-12-13T12:49:33.514Z,2.49
2022-12-13T12:51:50.575Z,2.51
2022-12-13T12:54:10.670Z,2.53
2022-12-13T12:56:35.651Z,2.56
2022-12-13T12:58:48.527Z,2.57
2022-12-13T13:01:06.521Z,2.59
2022-12-13T13:03:22.905Z,2.60
2022-12-13T13:05:32.086Z,2.61
2022-12-13T13:07:40.385Z,2.60
2022-12-13T13:09:45.963Z,2.61
2022-12-13T13:11:51.088Z,2.62
2022-12-13T13:14:08.409Z,2.61
2022-12-13T13:16:31.207Z,2.61
2022-12-13T13:18:51.619Z,2.62
2022-12-13T13:21:43.007Z,2.61
2022-12-13T13:23:47.093Z,2.63
2022-12-13T13:26:24.283Z,2.63
2022-12-13T13:28:23.900Z,2.66
2022-12-13T13:30:28.304Z,2.70
2022-12-13T13:32:33.047Z,2.77
2022-12-13T13:34:41.541Z,2.81
2022-12-13T13:36:52.728Z,2.82
2022-12-13T13:39:01.119Z,2.83
2022-12-13T13:41:43.467Z,2.83
2022-12-13T13:43:48.189Z,2.83
2022-12-13T13:45:58.967Z,2.83
2022-12-13T13:48:20.016Z,2.84
2022-12-13T13:50:57.270Z,2.81
2022-12-13T13:53:28.607Z,2.78
2022-12-13T13:55:50.925Z,2.81
2022-12-13T13:58:21.313Z,2.81
2022-12-13T14:00:40.760Z,2.81
2022-12-13T14:03:29.162Z,2.83
2022-12-13T14:06:11.707Z,2.82
2022-12-13T14:08:41.096Z,2.84
2022-12-13T14:10:54.559Z,2.87
2022-12-13T14:13:41.447Z,2.84
2022-12-13T14:16:30.819Z,2.78
2022-12-13T14:19:09.204Z,2.76
2022-12-13T14:21:28.717Z,2.74
2022-12-13T14:23:44.693Z,2.71
2022-12-13T14:26:17.361Z,2.73
2022-12-13T14:28:43.740Z,2.74
2022-12-13T14:30:57.113Z,2.70
2022-12-13T14:33:02.377Z,2.66
2022-12-13T14:35:25.429Z,2.64
2022-12-13T14:37:33.028Z,2.64
2022-12-13T14:39:36.855Z,2.64
2022-12-13T14:41:48.102Z,2.63
2022-12-13T14:43:52.026Z,2.63
2022-12-13T14:45:58.171Z,2.64
2022-12-13T14:48:05.258Z,2.66
2022-12-13T14:50:16.694Z,2.68
2022-12-13T14:52:26.502Z,2.67
2022-12-13T14:54:37.712Z,2.66
2022-12-13T14:56:57.111Z,2.64
2022-12-13T14:59:02.652Z,2.63
2022-12-13T15:01:07.729Z,2.61
2022-12-13T15:03:24.049Z,2.60
2022-12-13T15:05:35.529Z,2.60
2022-12-13T15:07:42.967Z,2.57
2022-12-13T15:09:48.089Z,2.54
2022-12-13T15:11:53.249Z,2.51
2022-12-13T15:13:58.199Z,2.47
2022-12-13T15:16:10.595Z,2.46
2022-12-13T15:18:20.124Z,2.45
2022-12-13T15:20:42.291Z,2.41
2022-12-13T15:23:01.452Z,2.39
2022-12-13T15:25:08.618Z,2.36
2022-12-13T15:27:17.300Z,2.37
2022-12-13T15:29:24.157Z,2.37
2022-12-13T15:31:28.983Z,2.38
2022-12-13T15:33:38.040Z,2.38
2022-12-13T15:35:48.012Z,2.37
2022-12-13T15:37:52.295Z,2.39
2022-12-13T15:40:01.145Z,2.37
2022-12-13T15:42:05.270Z,2.37
2022-12-13T15:44:20.904Z,2.37
2022-12-13T15:46:29.796Z,2.36
2022-12-13T15:48:36.936Z,2.37
2022-12-13T15:50:47.314Z,2.37
2022-12-13T15:53:01.688Z,2.36
2022-12-13T15:55:28.670Z,2.35
2022-12-13T15:57:34.965Z,2.37
2022-12-13T15:59:39.054Z,2.38
2022-12-13T16:01:43.080Z,2.40
2022-12-13T16:03:50.922Z,2.42
2022-12-13T16:05:56.660Z,2.41
2022-12-13T16:08:13.484Z,2.42
2022-12-13T16:10:20.235Z,2.46
2022-12-13T16:12:30.873Z,2.48
2022-12-13T16:14:48.785Z,2.52
2022-12-13T16:16:53.864Z,2.52
2022-12-13T16:18:59.698Z,2.54
2022-12-13T16:21:03.474Z,2.54
2022-12-13T16:23:09.440Z,2.57
2022-12-13T16:25:15.890Z,2.59
2022-12-13T16:27:19.615Z,2.60
2022-12-13T16:29:23.742Z,2.60
2022-12-13T16:31:31.770Z,2.60
2022-12-13T16:33:36.222Z,2.60
2022-12-13T16:35:40.355Z,2.62
2022-12-13T16:37:48.048Z,2.60
2022-12-13T16:39:53.369Z,2.60
2022-12-13T16:41:57.351Z,2.62
2022-12-13T16:44:04.244Z,2.63
2022-12-13T16:47:11.911Z,2.64
2022-12-13T16:48:33.087Z,2.67
2022-12-13T16:50:37.523Z,2.69
2022-12-13T16:52:41.274Z,2.70
2022-12-13T16:54:44.809Z,2.71
2022-12-13T16:56:50.910Z,2.71
2022-12-13T16:58:54.567Z,2.71
2022-12-13T17:01:00.393Z,2.73
2022-12-13T17:03:05.101Z,2.73
2022-12-13T17:05:10.220Z,2.74
2022-12-13T17:07:13.918Z,2.74
2022-12-13T17:09:18.145Z,2.74
2022-12-13T17:11:22.453Z,2.77
2022-12-13T17:13:28.706Z,2.78
2022-12-13T17:15:33.438Z,2.77
2022-12-13T17:17:38.999Z,2.77
2022-12-13T17:19:43.235Z,2.79
2022-12-13T17:21:46.996Z,2.79
2022-12-13T17:23:50.812Z,2.77
2022-12-13T17:25:58.077Z,2.78
2022-12-13T17:28:04.572Z,2.80
2022-12-13T17:30:17.076Z,2.79
2022-12-13T17:32:21.058Z,2.80
2022-12-13T17:34:25.473Z,2.80
2022-12-13T17:36:31.599Z,2.81
2022-12-13T17:38:35.760Z,2.80
2022-12-13T17:40:39.323Z,2.82
2022-12-13T17:42:43.668Z,2.81
2022-12-13T17:44:47.605Z,2.83
2022-12-13T17:46:54.644Z,2.83
2022-12-13T17:48:59.516Z,2.83
2022-12-13T17:51:03.514Z,2.84
2022-12-13T17:53:07.488Z,2.85
2022-12-13T17:55:17.951Z,2.84
2022-12-13T17:57:22.294Z,2.84
2022-12-13T17:59:27.444Z,2.83
2022-12-13T18:01:31.649Z,2.81
2022-12-13T18:03:37.510Z,2.80
2022-12-13T18:05:41.252Z,2.79
2022-12-13T18:07:50.688Z,2.77
2022-12-13T18:09:54.729Z,2.78
2022-12-13T18:11:58.161Z,2.80
2022-12-13T18:14:02.230Z,2.80
2022-12-13T18:16:07.027Z,2.79
2022-12-13T18:18:12.101Z,2.77
2022-12-13T18:20:17.870Z,2.76
2022-12-13T18:22:22.078Z,2.76
2022-12-13T18:24:25.844Z,2.74
2022-12-13T18:26:29.547Z,2.74
2022-12-13T18:28:34.089Z,2.74
2022-12-13T18:30:38.546Z,2.70
2022-12-13T18:32:43.096Z,2.69
2022-12-13T18:34:46.814Z,2.70
2022-12-13T18:36:52.026Z,2.70
2022-12-13T18:38:55.851Z,2.74
2022-12-13T18:40:59.686Z,2.75
2022-12-13T18:43:04.508Z,2.76
2022-12-13T18:45:08.956Z,2.76
2022-12-13T18:47:17.912Z,2.77
2022-12-13T18:49:24.782Z,2.78
2022-12-13T18:51:29.165Z,2.75
2022-12-13T18:53:35.999Z,2.71
2022-12-13T18:55:39.919Z,2.69
2022-12-13T18:57:43.953Z,2.67
2022-12-13T18:59:54.277Z,2.65
2022-12-13T19:01:59.192Z,2.61
2022-12-13T19:04:03.207Z,2.60
2022-12-13T19:06:08.619Z,2.60
2022-12-13T19:08:12.196Z,2.60
2022-12-13T19:10:17.928Z,2.60
2022-12-13T19:12:21.632Z,2.62
2022-12-13T19:14:27.228Z,2.62
2022-12-13T19:16:31.083Z,2.63
2022-12-13T19:18:35.187Z,2.65
2022-12-13T19:20:38.997Z,2.63
2022-12-13T19:22:42.789Z,2.62
2022-12-13T19:24:47.060Z,2.58
2022-12-13T19:26:52.959Z,2.53
2022-12-13T19:28:58.579Z,2.45
2022-12-13T19:31:05.603Z,2.37
2022-12-13T19:33:09.460Z,2.31
2022-12-13T19:35:13.166Z,2.26
2022-12-13T19:37:16.876Z,2.22
2022-12-13T19:39:20.853Z,2.16
2022-12-13T19:41:24.543Z,2.13
2022-12-13T19:43:30.401Z,2.11
2022-12-13T19:45:34.246Z,2.06
2022-12-13T19:47:38.153Z,2.01
2022-12-13T19:49:42.312Z,1.97
2022-12-13T19:51:46.255Z,1.95
2022-12-13T19:53:51.040Z,1.88
2022-12-13T19:55:55.091Z,1.84
2022-12-13T19:58:00.860Z,1.81
2022-12-13T20:00:07.580Z,1.75
2022-12-13T20:02:14.027Z,1.72
2022-12-13T20:04:17.916Z,1.70
2022-12-13T20:06:24.366Z,1.67
2022-12-13T20:08:28.138Z,1.65
2022-12-13T20:10:32.420Z,1.62
2022-12-13T20:12:40.710Z,1.59
2022-12-13T20:14:45.431Z,1.57
2022-12-13T20:16:50.845Z,1.58
2022-12-13T20:18:59.104Z,1.59
2022-12-13T20:21:13.727Z,1.61
2022-12-13T20:23:19.096Z,1.61
2022-12-13T20:25:22.745Z,1.60
2022-12-13T20:27:26.608Z,1.59
2022-12-13T20:29:30.608Z,1.58
2022-12-13T20:31:36.756Z,1.54
2022-12-13T20:33:42.651Z,1.52
2022-12-13T20:36:22.027Z,1.53
2022-12-13T20:38:11.912Z,1.53
2022-12-13T20:40:16.324Z,1.51
2022-12-13T20:42:20.026Z,1.49
2022-12-13T20:44:23.930Z,1.46
2022-12-13T20:46:29.195Z,1.47
2022-12-13T20:48:33.392Z,1.46
2022-12-13T20:50:38.747Z,1.48
2022-12-13T20:52:45.160Z,1.51
2022-12-13T20:54:54.149Z,1.52
2022-12-13T20:56:58.004Z,1.55
2022-12-13T20:59:02.400Z,1.58
2022-12-13T21:01:06.605Z,1.72
2022-12-13T21:03:10.508Z,1.90
2022-12-13T21:05:20.488Z,2.13
2022-12-13T21:07:39.797Z,2.29
2022-12-13T21:09:44.975Z,2.46
2022-12-13T21:11:50.578Z,2.58
2022-12-13T21:14:01.219Z,2.65
2022-12-13T21:16:09.731Z,2.70
2022-12-13T21:18:14.638Z,2.76
2022-12-13T21:20:18.550Z,2.79
2022-12-13T21:22:22.819Z,2.82
2022-12-13T21:24:29.727Z,2.85
2022-12-13T21:26:36.157Z,2.88
2022-12-13T21:28:40.826Z,2.88
2022-12-13T21:30:44.829Z,2.91
2022-12-13T21:32:52.805Z,2.93
2022-12-13T21:34:56.784Z,2.93
2022-12-13T21:37:00.889Z,2.93
2022-12-13T21:39:06.905Z,2.94
2022-12-13T21:41:13.557Z,2.95
2022-12-13T21:43:17.795Z,2.96
2022-12-13T21:45:21.529Z,2.97
2022-12-13T21:47:25.318Z,2.97
2022-12-13T21:49:29.154Z,2.97
2022-12-13T21:51:32.952Z,2.97
2022-12-13T21:53:36.903Z,2.97
2022-12-13T21:55:44.231Z,2.98
2022-12-13T21:58:10.703Z,3.00
2022-12-13T22:00:16.528Z,3.02
2022-12-13T22:02:20.854Z,3.02
2022-12-13T22:04:24.917Z,3.00
2022-12-13T22:06:28.701Z,3.01
2022-12-13T22:08:32.561Z,3.04
2022-12-13T22:10:57.231Z,3.03
2022-12-13T22:13:02.916Z,3.04
2022-12-13T22:15:08.059Z,3.05
2022-12-13T22:17:11.913Z,3.05
2022-12-13T22:19:16.293Z,3.04
2022-12-13T22:21:19.752Z,3.03
2022-12-13T22:23:23.762Z,3.03
2022-12-13T22:25:27.736Z,3.04
2022-12-13T22:27:31.511Z,3.03
2022-12-13T22:29:39.658Z,3.05
2022-12-13T22:31:43.904Z,3.03
2022-12-13T22:33:53.031Z,3.03
2022-12-13T22:35:57.269Z,3.02
2022-12-13T22:38:02.162Z,3.00
2022-12-13T22:40:07.124Z,3.00
2022-12-13T22:42:11.859Z,3.02
2022-12-13T22:44:17.094Z,2.99
2022-12-13T22:46:23.243Z,3.00
2022-12-13T22:48:27.655Z,3.02
2022-12-13T22:50:32.680Z,3.03
2022-12-13T22:52:36.951Z,3.05
2022-12-13T22:54:41.029Z,3.07
2022-12-13T22:56:45.435Z,3.05
2022-12-13T22:58:54.264Z,3.05
2022-12-13T23:00:58.394Z,3.08
2022-12-13T23:03:04.201Z,3.08
2022-12-13T23:05:09.051Z,3.07
2022-12-13T23:07:13.501Z,3.07
2022-12-13T23:09:17.969Z,3.05
2022-12-13T23:11:39.407Z,3.04
2022-12-13T23:13:43.410Z,3.02
2022-12-13T23:15:52.497Z,2.99
2022-12-13T23:17:56.631Z,2.96
2022-12-13T23:20:02.249Z,2.95
2022-12-13T23:22:08.684Z,2.95
2022-12-13T23:24:13.550Z,2.95
2022-12-13T23:26:19.541Z,2.92
2022-12-13T23:28:24.652Z,2.94
2022-12-13T23:30:29.265Z,2.94
2022-12-13T23:32:33.350Z,2.93
2022-12-13T23:34:38.165Z,2.94
2022-12-13T23:36:43.975Z,2.93
2022-12-13T23:38:48.329Z,2.92
2022-12-13T23:40:52.382Z,2.92
2022-12-13T23:42:56.717Z,2.91
2022-12-13T23:45:00.973Z,2.87
2022-12-13T23:47:06.542Z,2.84
2022-12-13T23:49:11.954Z,2.82
2022-12-13T23:51:17.974Z,2.81
2022-12-13T23:53:24.536Z,2.81
2022-12-13T23:55:28.788Z,2.80
2022-12-13T23:57:33.577Z,2.80
2022-12-13T23:59:37.892Z,2.79
